sensor_id;sensor_type;location;lat;lon;timestamp;P1;durP1;ratioP1;P2;durP2;ratioP2
7475;SDS011;3779;49.216;8.650;2023-03-05T00:01:02;28.57;;;18.27;;
7475;SDS011;3779;49.216;8.650;2023-03-05T00:03:52;25.40;;;16.57;;
7475;SDS011;3779;49.216;8.650;2023-03-05T00:06:31;24.87;;;17.70;;
7475;SDS011;3779;49.216;8.650;2023-03-05T00:09:19;26.47;;;18.10;;
7475;SDS011;3779;49.216;8.650;2023-03-05T00:12:05;25.90;;;16.83;;
7475;SDS011;3779;49.216;8.650;2023-03-05T00:14:52;25.00;;;17.47;;
7475;SDS011;3779;49.216;8.650;2023-03-05T00:17:38;23.03;;;16.83;;
7475;SDS011;3779;49.216;8.650;2023-03-05T00:20:26;25.50;;;18.23;;
7475;SDS011;3779;49.216;8.650;2023-03-05T00:23:12;25.80;;;18.07;;
7475;SDS011;3779;49.216;8.650;2023-03-05T00:26:01;24.23;;;17.13;;
7475;SDS011;3779;49.216;8.650;2023-03-05T00:28:49;25.90;;;17.17;;
7475;SDS011;3779;49.216;8.650;2023-03-05T00:31:37;24.40;;;16.97;;
7475;SDS011;3779;49.216;8.650;2023-03-05T00:34:23;25.43;;;17.00;;
7475;SDS011;3779;49.216;8.650;2023-03-05T00:37:10;27.50;;;17.57;;
7475;SDS011;3779;49.216;8.650;2023-03-05T00:39:59;25.57;;;16.87;;
7475;SDS011;3779;49.216;8.650;2023-03-05T00:42:45;24.90;;;17.13;;
7475;SDS011;3779;49.216;8.650;2023-03-05T00:45:34;25.50;;;18.17;;
7475;SDS011;3779;49.216;8.650;2023-03-05T00:48:23;24.57;;;17.17;;
7475;SDS011;3779;49.216;8.650;2023-03-05T00:51:10;25.03;;;17.77;;
7475;SDS011;3779;49.216;8.650;2023-03-05T00:53:56;24.20;;;16.97;;
7475;SDS011;3779;49.216;8.650;2023-03-05T00:56:42;27.43;;;17.93;;
7475;SDS011;3779;49.216;8.650;2023-03-05T00:59:28;24.90;;;16.87;;
7475;SDS011;3779;49.216;8.650;2023-03-05T01:02:14;25.67;;;16.87;;
7475;SDS011;3779;49.216;8.650;2023-03-05T01:05:00;25.37;;;17.43;;
7475;SDS011;3779;49.216;8.650;2023-03-05T01:07:47;23.60;;;17.57;;
7475;SDS011;3779;49.216;8.650;2023-03-05T01:10:36;26.53;;;17.60;;
7475;SDS011;3779;49.216;8.650;2023-03-05T01:13:23;25.43;;;16.90;;
7475;SDS011;3779;49.216;8.650;2023-03-05T01:19:05;26.00;;;17.03;;
7475;SDS011;3779;49.216;8.650;2023-03-05T01:21:51;25.60;;;16.47;;
7475;SDS011;3779;49.216;8.650;2023-03-05T01:24:38;27.47;;;17.20;;
7475;SDS011;3779;49.216;8.650;2023-03-05T01:27:25;22.00;;;16.47;;
7475;SDS011;3779;49.216;8.650;2023-03-05T01:30:13;23.90;;;17.17;;
7475;SDS011;3779;49.216;8.650;2023-03-05T01:33:01;24.03;;;16.40;;
7475;SDS011;3779;49.216;8.650;2023-03-05T01:35:47;24.57;;;17.37;;
7475;SDS011;3779;49.216;8.650;2023-03-05T01:38:34;24.67;;;17.43;;
7475;SDS011;3779;49.216;8.650;2023-03-05T01:41:20;25.23;;;17.57;;
7475;SDS011;3779;49.216;8.650;2023-03-05T01:44:13;26.07;;;17.33;;
7475;SDS011;3779;49.216;8.650;2023-03-05T01:47:12;24.57;;;16.27;;
7475;SDS011;3779;49.216;8.650;2023-03-05T01:49:58;26.33;;;17.33;;
7475;SDS011;3779;49.216;8.650;2023-03-05T01:52:46;23.47;;;16.33;;
7475;SDS011;3779;49.216;8.650;2023-03-05T01:55:36;23.70;;;16.77;;
7475;SDS011;3779;49.216;8.650;2023-03-05T01:58:22;26.73;;;17.43;;
7475;SDS011;3779;49.216;8.650;2023-03-05T02:01:09;23.20;;;16.93;;
7475;SDS011;3779;49.216;8.650;2023-03-05T02:03:56;25.83;;;17.03;;
7475;SDS011;3779;49.216;8.650;2023-03-05T02:06:46;24.47;;;17.27;;
7475;SDS011;3779;49.216;8.650;2023-03-05T02:09:38;26.40;;;17.73;;
7475;SDS011;3779;49.216;8.650;2023-03-05T02:12:28;23.90;;;16.67;;
7475;SDS011;3779;49.216;8.650;2023-03-05T02:15:15;25.33;;;16.60;;
7475;SDS011;3779;49.216;8.650;2023-03-05T02:18:04;24.83;;;17.20;;
7475;SDS011;3779;49.216;8.650;2023-03-05T02:23:40;21.37;;;15.83;;
7475;SDS011;3779;49.216;8.650;2023-03-05T02:26:27;23.97;;;16.40;;
7475;SDS011;3779;49.216;8.650;2023-03-05T02:29:17;25.47;;;17.40;;
7475;SDS011;3779;49.216;8.650;2023-03-05T02:32:04;24.80;;;16.83;;
7475;SDS011;3779;49.216;8.650;2023-03-05T02:34:52;22.83;;;16.33;;
7475;SDS011;3779;49.216;8.650;2023-03-05T02:37:37;22.47;;;16.67;;
7475;SDS011;3779;49.216;8.650;2023-03-05T02:40:25;24.30;;;17.03;;
7475;SDS011;3779;49.216;8.650;2023-03-05T02:43:11;24.20;;;17.50;;
7475;SDS011;3779;49.216;8.650;2023-03-05T02:45:58;23.20;;;16.83;;
7475;SDS011;3779;49.216;8.650;2023-03-05T02:48:44;26.20;;;17.10;;
7475;SDS011;3779;49.216;8.650;2023-03-05T02:51:32;24.03;;;16.37;;
7475;SDS011;3779;49.216;8.650;2023-03-05T02:54:20;25.60;;;16.37;;
7475;SDS011;3779;49.216;8.650;2023-03-05T02:57:07;21.73;;;15.17;;
7475;SDS011;3779;49.216;8.650;2023-03-05T02:59:53;26.33;;;16.90;;
7475;SDS011;3779;49.216;8.650;2023-03-05T03:02:39;22.17;;;15.60;;
7475;SDS011;3779;49.216;8.650;2023-03-05T03:05:25;27.60;;;17.13;;
7475;SDS011;3779;49.216;8.650;2023-03-05T03:08:12;22.73;;;15.83;;
7475;SDS011;3779;49.216;8.650;2023-03-05T03:11:05;23.07;;;16.77;;
7475;SDS011;3779;49.216;8.650;2023-03-05T03:13:53;24.03;;;15.20;;
7475;SDS011;3779;49.216;8.650;2023-03-05T03:16:38;23.33;;;15.77;;
7475;SDS011;3779;49.216;8.650;2023-03-05T03:19:24;24.83;;;16.73;;
7475;SDS011;3779;49.216;8.650;2023-03-05T03:22:11;21.53;;;15.80;;
7475;SDS011;3779;49.216;8.650;2023-03-05T03:24:59;21.67;;;15.57;;
7475;SDS011;3779;49.216;8.650;2023-03-05T03:27:45;24.90;;;15.93;;
7475;SDS011;3779;49.216;8.650;2023-03-05T03:30:31;23.87;;;15.43;;
7475;SDS011;3779;49.216;8.650;2023-03-05T03:33:18;21.90;;;16.60;;
7475;SDS011;3779;49.216;8.650;2023-03-05T03:36:04;22.43;;;16.10;;
7475;SDS011;3779;49.216;8.650;2023-03-05T03:38:51;22.03;;;16.23;;
7475;SDS011;3779;49.216;8.650;2023-03-05T03:41:39;22.50;;;16.43;;
7475;SDS011;3779;49.216;8.650;2023-03-05T03:44:27;22.70;;;15.47;;
7475;SDS011;3779;49.216;8.650;2023-03-05T03:47:13;24.13;;;16.27;;
7475;SDS011;3779;49.216;8.650;2023-03-05T03:49:59;23.33;;;15.67;;
7475;SDS011;3779;49.216;8.650;2023-03-05T03:52:46;23.23;;;16.33;;
7475;SDS011;3779;49.216;8.650;2023-03-05T03:55:32;24.93;;;15.63;;
7475;SDS011;3779;49.216;8.650;2023-03-05T03:58:21;26.33;;;16.40;;
7475;SDS011;3779;49.216;8.650;2023-03-05T04:01:06;24.00;;;16.60;;
7475;SDS011;3779;49.216;8.650;2023-03-05T04:03:53;21.50;;;15.67;;
7475;SDS011;3779;49.216;8.650;2023-03-05T04:06:39;22.07;;;15.30;;
7475;SDS011;3779;49.216;8.650;2023-03-05T04:09:26;24.73;;;15.80;;
7475;SDS011;3779;49.216;8.650;2023-03-05T04:12:13;21.80;;;16.03;;
7475;SDS011;3779;49.216;8.650;2023-03-05T04:15:02;22.57;;;15.43;;
7475;SDS011;3779;49.216;8.650;2023-03-05T04:17:52;24.13;;;16.47;;
7475;SDS011;3779;49.216;8.650;2023-03-05T04:20:38;22.93;;;15.17;;
7475;SDS011;3779;49.216;8.650;2023-03-05T04:23:25;21.70;;;14.93;;
7475;SDS011;3779;49.216;8.650;2023-03-05T04:26:11;23.47;;;15.90;;
7475;SDS011;3779;49.216;8.650;2023-03-05T04:28:58;24.53;;;16.33;;
7475;SDS011;3779;49.216;8.650;2023-03-05T04:31:44;22.70;;;16.47;;
7475;SDS011;3779;49.216;8.650;2023-03-05T04:34:31;24.33;;;15.43;;
7475;SDS011;3779;49.216;8.650;2023-03-05T04:37:18;22.00;;;16.47;;
7475;SDS011;3779;49.216;8.650;2023-03-05T04:40:04;22.03;;;15.37;;
7475;SDS011;3779;49.216;8.650;2023-03-05T04:42:52;21.97;;;15.97;;
7475;SDS011;3779;49.216;8.650;2023-03-05T04:45:39;23.40;;;16.13;;
7475;SDS011;3779;49.216;8.650;2023-03-05T04:48:26;21.73;;;15.83;;
7475;SDS011;3779;49.216;8.650;2023-03-05T04:51:12;24.53;;;15.87;;
7475;SDS011;3779;49.216;8.650;2023-03-05T04:53:57;22.67;;;17.00;;
7475;SDS011;3779;49.216;8.650;2023-03-05T04:56:43;24.13;;;16.60;;
7475;SDS011;3779;49.216;8.650;2023-03-05T04:59:30;22.57;;;15.43;;
7475;SDS011;3779;49.216;8.650;2023-03-05T05:02:16;21.67;;;16.20;;
7475;SDS011;3779;49.216;8.650;2023-03-05T05:05:02;23.97;;;15.53;;
7475;SDS011;3779;49.216;8.650;2023-03-05T05:07:49;23.87;;;15.60;;
7475;SDS011;3779;49.216;8.650;2023-03-05T05:10:37;24.17;;;16.17;;
7475;SDS011;3779;49.216;8.650;2023-03-05T05:13:24;23.57;;;15.40;;
7475;SDS011;3779;49.216;8.650;2023-03-05T05:16:10;21.93;;;15.67;;
7475;SDS011;3779;49.216;8.650;2023-03-05T05:18:57;22.90;;;16.07;;
7475;SDS011;3779;49.216;8.650;2023-03-05T05:21:43;24.50;;;16.27;;
7475;SDS011;3779;49.216;8.650;2023-03-05T05:24:29;22.70;;;15.77;;
7475;SDS011;3779;49.216;8.650;2023-03-05T05:27:15;23.80;;;15.17;;
7475;SDS011;3779;49.216;8.650;2023-03-05T05:30:01;24.23;;;17.13;;
7475;SDS011;3779;49.216;8.650;2023-03-05T05:32:48;23.07;;;16.20;;
7475;SDS011;3779;49.216;8.650;2023-03-05T05:35:37;24.53;;;15.97;;
7475;SDS011;3779;49.216;8.650;2023-03-05T05:38:23;21.60;;;15.47;;
7475;SDS011;3779;49.216;8.650;2023-03-05T05:41:11;21.70;;;15.23;;
7475;SDS011;3779;49.216;8.650;2023-03-05T05:43:58;22.60;;;15.17;;
7475;SDS011;3779;49.216;8.650;2023-03-05T05:46:45;21.90;;;15.17;;
7475;SDS011;3779;49.216;8.650;2023-03-05T05:49:32;21.23;;;15.67;;
7475;SDS011;3779;49.216;8.650;2023-03-05T05:52:17;23.60;;;16.17;;
7475;SDS011;3779;49.216;8.650;2023-03-05T05:55:04;25.97;;;16.17;;
7475;SDS011;3779;49.216;8.650;2023-03-05T05:57:51;23.53;;;15.87;;
7475;SDS011;3779;49.216;8.650;2023-03-05T06:00:38;24.87;;;16.23;;
7475;SDS011;3779;49.216;8.650;2023-03-05T06:03:24;22.43;;;15.83;;
7475;SDS011;3779;49.216;8.650;2023-03-05T06:06:10;24.63;;;16.73;;
7475;SDS011;3779;49.216;8.650;2023-03-05T06:08:57;23.43;;;15.83;;
7475;SDS011;3779;49.216;8.650;2023-03-05T06:11:44;22.90;;;15.90;;
7475;SDS011;3779;49.216;8.650;2023-03-05T06:14:30;23.77;;;16.53;;
7475;SDS011;3779;49.216;8.650;2023-03-05T06:17:16;24.37;;;16.50;;
7475;SDS011;3779;49.216;8.650;2023-03-05T06:20:03;23.77;;;15.73;;
7475;SDS011;3779;49.216;8.650;2023-03-05T06:22:50;26.50;;;17.27;;
7475;SDS011;3779;49.216;8.650;2023-03-05T06:25:39;23.63;;;16.30;;
7475;SDS011;3779;49.216;8.650;2023-03-05T06:28:25;24.57;;;17.33;;
7475;SDS011;3779;49.216;8.650;2023-03-05T06:31:13;22.33;;;16.20;;
7475;SDS011;3779;49.216;8.650;2023-03-05T06:34:01;25.90;;;15.93;;
7475;SDS011;3779;49.216;8.650;2023-03-05T06:36:47;23.97;;;16.63;;
7475;SDS011;3779;49.216;8.650;2023-03-05T06:39:34;24.37;;;16.00;;
7475;SDS011;3779;49.216;8.650;2023-03-05T06:42:21;26.20;;;16.90;;
7475;SDS011;3779;49.216;8.650;2023-03-05T06:45:08;23.43;;;16.77;;
7475;SDS011;3779;49.216;8.650;2023-03-05T06:47:58;26.03;;;16.40;;
7475;SDS011;3779;49.216;8.650;2023-03-05T06:50:44;25.33;;;16.60;;
7475;SDS011;3779;49.216;8.650;2023-03-05T06:53:30;25.17;;;16.47;;
7475;SDS011;3779;49.216;8.650;2023-03-05T06:56:16;25.03;;;17.17;;
7475;SDS011;3779;49.216;8.650;2023-03-05T06:59:04;23.97;;;17.17;;
7475;SDS011;3779;49.216;8.650;2023-03-05T07:04:49;26.83;;;16.30;;
7475;SDS011;3779;49.216;8.650;2023-03-05T07:07:36;23.87;;;16.33;;
7475;SDS011;3779;49.216;8.650;2023-03-05T07:10:23;21.90;;;16.07;;
7475;SDS011;3779;49.216;8.650;2023-03-05T07:13:09;21.83;;;15.97;;
7475;SDS011;3779;49.216;8.650;2023-03-05T07:15:57;29.87;;;16.87;;
7475;SDS011;3779;49.216;8.650;2023-03-05T07:18:45;24.60;;;16.40;;
7475;SDS011;3779;49.216;8.650;2023-03-05T07:21:31;22.83;;;16.00;;
7475;SDS011;3779;49.216;8.650;2023-03-05T07:24:18;24.57;;;16.47;;
7475;SDS011;3779;49.216;8.650;2023-03-05T07:27:09;24.60;;;16.50;;
7475;SDS011;3779;49.216;8.650;2023-03-05T07:29:55;23.40;;;16.30;;
7475;SDS011;3779;49.216;8.650;2023-03-05T07:32:41;23.90;;;16.83;;
7475;SDS011;3779;49.216;8.650;2023-03-05T07:35:28;27.40;;;16.90;;
7475;SDS011;3779;49.216;8.650;2023-03-05T07:38:14;23.97;;;17.30;;
7475;SDS011;3779;49.216;8.650;2023-03-05T07:41:09;25.90;;;16.90;;
7475;SDS011;3779;49.216;8.650;2023-03-05T07:43:56;23.60;;;16.20;;
7475;SDS011;3779;49.216;8.650;2023-03-05T07:46:42;23.57;;;16.60;;
7475;SDS011;3779;49.216;8.650;2023-03-05T07:49:28;23.37;;;16.60;;
7475;SDS011;3779;49.216;8.650;2023-03-05T07:52:15;24.23;;;16.43;;
7475;SDS011;3779;49.216;8.650;2023-03-05T07:55:01;24.43;;;16.27;;
7475;SDS011;3779;49.216;8.650;2023-03-05T07:57:47;24.57;;;17.07;;
7475;SDS011;3779;49.216;8.650;2023-03-05T08:00:33;24.63;;;16.80;;
7475;SDS011;3779;49.216;8.650;2023-03-05T08:03:19;22.27;;;16.30;;
7475;SDS011;3779;49.216;8.650;2023-03-05T08:06:05;23.77;;;16.83;;
7475;SDS011;3779;49.216;8.650;2023-03-05T08:08:53;23.40;;;16.17;;
7475;SDS011;3779;49.216;8.650;2023-03-05T08:11:39;26.17;;;17.40;;
7475;SDS011;3779;49.216;8.650;2023-03-05T08:14:27;24.00;;;17.13;;
7475;SDS011;3779;49.216;8.650;2023-03-05T08:17:13;24.97;;;18.03;;
7475;SDS011;3779;49.216;8.650;2023-03-05T08:19:59;25.30;;;17.33;;
7475;SDS011;3779;49.216;8.650;2023-03-05T08:22:50;25.00;;;18.30;;
7475;SDS011;3779;49.216;8.650;2023-03-05T08:25:37;26.00;;;17.13;;
7475;SDS011;3779;49.216;8.650;2023-03-05T08:28:23;25.23;;;18.63;;
7475;SDS011;3779;49.216;8.650;2023-03-05T08:31:09;25.73;;;18.07;;
7475;SDS011;3779;49.216;8.650;2023-03-05T08:33:57;26.80;;;17.87;;
7475;SDS011;3779;49.216;8.650;2023-03-05T08:36:45;24.93;;;17.47;;
7475;SDS011;3779;49.216;8.650;2023-03-05T08:39:32;23.57;;;17.33;;
7475;SDS011;3779;49.216;8.650;2023-03-05T08:42:18;23.23;;;15.17;;
7475;SDS011;3779;49.216;8.650;2023-03-05T08:45:04;23.77;;;16.77;;
7475;SDS011;3779;49.216;8.650;2023-03-05T08:47:52;23.90;;;16.40;;
7475;SDS011;3779;49.216;8.650;2023-03-05T08:50:38;23.70;;;15.73;;
7475;SDS011;3779;49.216;8.650;2023-03-05T08:53:24;24.10;;;16.43;;
7475;SDS011;3779;49.216;8.650;2023-03-05T08:56:11;21.97;;;16.10;;
7475;SDS011;3779;49.216;8.650;2023-03-05T08:58:58;22.33;;;14.90;;
7475;SDS011;3779;49.216;8.650;2023-03-05T09:01:44;19.13;;;14.43;;
7475;SDS011;3779;49.216;8.650;2023-03-05T09:04:30;17.30;;;12.97;;
7475;SDS011;3779;49.216;8.650;2023-03-05T09:07:16;19.03;;;13.80;;
7475;SDS011;3779;49.216;8.650;2023-03-05T09:10:02;18.80;;;13.10;;
7475;SDS011;3779;49.216;8.650;2023-03-05T09:12:50;18.20;;;13.00;;
7475;SDS011;3779;49.216;8.650;2023-03-05T09:15:36;15.87;;;12.40;;
7475;SDS011;3779;49.216;8.650;2023-03-05T09:18:22;14.23;;;10.37;;
7475;SDS011;3779;49.216;8.650;2023-03-05T09:21:10;13.87;;;9.83;;
7475;SDS011;3779;49.216;8.650;2023-03-05T09:23:59;14.87;;;12.67;;
7475;SDS011;3779;49.216;8.650;2023-03-05T09:26:46;17.37;;;11.60;;
7475;SDS011;3779;49.216;8.650;2023-03-05T09:29:32;15.20;;;10.60;;
7475;SDS011;3779;49.216;8.650;2023-03-05T09:32:18;14.70;;;10.07;;
7475;SDS011;3779;49.216;8.650;2023-03-05T09:35:05;13.77;;;10.77;;
7475;SDS011;3779;49.216;8.650;2023-03-05T09:37:52;15.07;;;10.30;;
7475;SDS011;3779;49.216;8.650;2023-03-05T09:44:20;14.43;;;9.60;;
7475;SDS011;3779;49.216;8.650;2023-03-05T09:47:31;16.37;;;10.87;;
7475;SDS011;3779;49.216;8.650;2023-03-05T09:50:45;13.27;;;11.07;;
7475;SDS011;3779;49.216;8.650;2023-03-05T09:53:51;15.50;;;10.70;;
7475;SDS011;3779;49.216;8.650;2023-03-05T09:56:39;14.60;;;11.10;;
7475;SDS011;3779;49.216;8.650;2023-03-05T09:59:41;11.70;;;9.60;;
7475;SDS011;3779;49.216;8.650;2023-03-05T10:02:39;9.17;;;6.73;;
7475;SDS011;3779;49.216;8.650;2023-03-05T10:08:43;13.90;;;10.30;;
7475;SDS011;3779;49.216;8.650;2023-03-05T10:11:41;13.77;;;10.52;;
7475;SDS011;3779;49.216;8.650;2023-03-05T10:14:50;11.80;;;9.97;;
7475;SDS011;3779;49.216;8.650;2023-03-05T10:20:47;13.70;;;9.60;;
7475;SDS011;3779;49.216;8.650;2023-03-05T10:26:57;12.33;;;9.80;;
7475;SDS011;3779;49.216;8.650;2023-03-05T10:33:23;10.93;;;9.73;;
7475;SDS011;3779;49.216;8.650;2023-03-05T10:46:14;12.50;;;9.43;;
7475;SDS011;3779;49.216;8.650;2023-03-05T10:49:19;11.90;;;9.70;;
7475;SDS011;3779;49.216;8.650;2023-03-05T10:55:21;8.90;;;7.67;;
7475;SDS011;3779;49.216;8.650;2023-03-05T10:58:09;9.90;;;7.93;;
7475;SDS011;3779;49.216;8.650;2023-03-05T11:06:44;9.13;;;7.40;;
7475;SDS011;3779;49.216;8.650;2023-03-05T11:09:30;8.30;;;6.53;;
7475;SDS011;3779;49.216;8.650;2023-03-05T11:12:18;9.50;;;6.57;;
7475;SDS011;3779;49.216;8.650;2023-03-05T11:15:20;7.70;;;6.20;;
7475;SDS011;3779;49.216;8.650;2023-03-05T11:21:24;7.93;;;5.77;;
7475;SDS011;3779;49.216;8.650;2023-03-05T11:24:13;6.47;;;5.60;;
7475;SDS011;3779;49.216;8.650;2023-03-05T11:27:19;7.40;;;6.20;;
7475;SDS011;3779;49.216;8.650;2023-03-05T11:30:18;7.77;;;5.33;;
7475;SDS011;3779;49.216;8.650;2023-03-05T11:33:14;5.53;;;4.90;;
7475;SDS011;3779;49.216;8.650;2023-03-05T11:36:21;6.90;;;3.93;;
7475;SDS011;3779;49.216;8.650;2023-03-05T11:39:16;7.63;;;5.70;;
7475;SDS011;3779;49.216;8.650;2023-03-05T11:42:12;5.87;;;4.70;;
7475;SDS011;3779;49.216;8.650;2023-03-05T11:45:14;8.10;;;5.37;;
7475;SDS011;3779;49.216;8.650;2023-03-05T11:54:18;7.97;;;5.67;;
7475;SDS011;3779;49.216;8.650;2023-03-05T11:57:16;6.23;;;5.10;;
7475;SDS011;3779;49.216;8.650;2023-03-05T12:00:14;7.27;;;5.70;;
7475;SDS011;3779;49.216;8.650;2023-03-05T12:03:32;7.10;;;5.20;;
7475;SDS011;3779;49.216;8.650;2023-03-05T12:09:39;6.50;;;4.77;;
7475;SDS011;3779;49.216;8.650;2023-03-05T12:22:15;8.13;;;5.53;;
7475;SDS011;3779;49.216;8.650;2023-03-05T12:31:40;6.67;;;5.10;;
7475;SDS011;3779;49.216;8.650;2023-03-05T12:40:21;8.03;;;5.87;;
7475;SDS011;3779;49.216;8.650;2023-03-05T12:43:27;6.97;;;5.60;;
7475;SDS011;3779;49.216;8.650;2023-03-05T12:46:24;8.63;;;6.80;;
7475;SDS011;3779;49.216;8.650;2023-03-05T12:52:02;6.37;;;5.07;;
7475;SDS011;3779;49.216;8.650;2023-03-05T12:54:55;6.87;;;5.63;;
7475;SDS011;3779;49.216;8.650;2023-03-05T12:57:56;6.43;;;5.37;;
7475;SDS011;3779;49.216;8.650;2023-03-05T13:04:04;7.57;;;4.90;;
7475;SDS011;3779;49.216;8.650;2023-03-05T13:07:00;5.70;;;4.97;;
7475;SDS011;3779;49.216;8.650;2023-03-05T13:09:53;6.03;;;3.97;;
7475;SDS011;3779;49.216;8.650;2023-03-05T13:12:42;5.60;;;4.47;;
7475;SDS011;3779;49.216;8.650;2023-03-05T13:15:38;5.30;;;4.03;;
7475;SDS011;3779;49.216;8.650;2023-03-05T13:18:25;5.00;;;4.50;;
7475;SDS011;3779;49.216;8.650;2023-03-05T13:21:16;5.27;;;4.63;;
7475;SDS011;3779;49.216;8.650;2023-03-05T13:24:03;6.80;;;4.17;;
7475;SDS011;3779;49.216;8.650;2023-03-05T13:26:59;6.73;;;5.90;;
7475;SDS011;3779;49.216;8.650;2023-03-05T13:29:51;5.93;;;4.70;;
7475;SDS011;3779;49.216;8.650;2023-03-05T13:32:38;4.87;;;3.80;;
7475;SDS011;3779;49.216;8.650;2023-03-05T13:35:24;5.77;;;4.30;;
7475;SDS011;3779;49.216;8.650;2023-03-05T13:38:20;4.83;;;3.80;;
7475;SDS011;3779;49.216;8.650;2023-03-05T13:44:16;4.40;;;3.83;;
7475;SDS011;3779;49.216;8.650;2023-03-05T13:47:12;6.87;;;4.43;;
7475;SDS011;3779;49.216;8.650;2023-03-05T13:50:05;4.53;;;3.63;;
7475;SDS011;3779;49.216;8.650;2023-03-05T13:52:53;4.57;;;3.57;;
7475;SDS011;3779;49.216;8.650;2023-03-05T13:55:39;4.80;;;2.83;;
7475;SDS011;3779;49.216;8.650;2023-03-05T13:58:42;3.97;;;3.30;;
7475;SDS011;3779;49.216;8.650;2023-03-05T14:01:44;3.10;;;2.67;;
7475;SDS011;3779;49.216;8.650;2023-03-05T14:04:35;4.47;;;3.30;;
7475;SDS011;3779;49.216;8.650;2023-03-05T14:10:43;4.83;;;2.90;;
7475;SDS011;3779;49.216;8.650;2023-03-05T14:13:28;3.37;;;2.63;;
7475;SDS011;3779;49.216;8.650;2023-03-05T14:16:25;3.87;;;2.80;;
7475;SDS011;3779;49.216;8.650;2023-03-05T14:22:29;3.00;;;2.70;;
7475;SDS011;3779;49.216;8.650;2023-03-05T14:28:25;2.87;;;2.57;;
7475;SDS011;3779;49.216;8.650;2023-03-05T14:31:15;3.07;;;2.50;;
7475;SDS011;3779;49.216;8.650;2023-03-05T14:34:04;3.80;;;3.20;;
7475;SDS011;3779;49.216;8.650;2023-03-05T14:36:54;4.13;;;2.37;;
7475;SDS011;3779;49.216;8.650;2023-03-05T14:42:35;3.43;;;2.50;;
7475;SDS011;3779;49.216;8.650;2023-03-05T14:45:24;3.83;;;2.50;;
7475;SDS011;3779;49.216;8.650;2023-03-05T14:48:17;2.50;;;2.27;;
7475;SDS011;3779;49.216;8.650;2023-03-05T14:51:04;3.10;;;2.80;;
7475;SDS011;3779;49.216;8.650;2023-03-05T14:53:52;4.13;;;2.80;;
7475;SDS011;3779;49.216;8.650;2023-03-05T14:56:39;2.97;;;2.40;;
7475;SDS011;3779;49.216;8.650;2023-03-05T14:59:26;2.93;;;2.20;;
7475;SDS011;3779;49.216;8.650;2023-03-05T15:02:13;2.80;;;2.33;;
7475;SDS011;3779;49.216;8.650;2023-03-05T15:05:07;3.27;;;2.23;;
7475;SDS011;3779;49.216;8.650;2023-03-05T15:07:56;4.37;;;2.33;;
7475;SDS011;3779;49.216;8.650;2023-03-05T15:10:47;2.90;;;2.57;;
7475;SDS011;3779;49.216;8.650;2023-03-05T15:13:34;2.63;;;1.70;;
7475;SDS011;3779;49.216;8.650;2023-03-05T15:16:23;4.37;;;2.60;;
7475;SDS011;3779;49.216;8.650;2023-03-05T15:19:19;4.67;;;2.87;;
7475;SDS011;3779;49.216;8.650;2023-03-05T15:23:08;4.23;;;2.70;;
7475;SDS011;3779;49.216;8.650;2023-03-05T15:25:55;4.07;;;2.80;;
7475;SDS011;3779;49.216;8.650;2023-03-05T15:28:41;3.27;;;2.83;;
7475;SDS011;3779;49.216;8.650;2023-03-05T15:31:27;4.70;;;2.87;;
7475;SDS011;3779;49.216;8.650;2023-03-05T15:34:16;3.17;;;2.77;;
7475;SDS011;3779;49.216;8.650;2023-03-05T15:37:03;4.80;;;2.80;;
7475;SDS011;3779;49.216;8.650;2023-03-05T15:39:49;2.97;;;2.67;;
7475;SDS011;3779;49.216;8.650;2023-03-05T15:42:39;3.13;;;2.63;;
7475;SDS011;3779;49.216;8.650;2023-03-05T15:45:37;3.93;;;2.70;;
7475;SDS011;3779;49.216;8.650;2023-03-05T15:48:27;3.80;;;2.50;;
7475;SDS011;3779;49.216;8.650;2023-03-05T15:51:18;4.63;;;2.70;;
7475;SDS011;3779;49.216;8.650;2023-03-05T15:54:05;3.43;;;2.70;;
7475;SDS011;3779;49.216;8.650;2023-03-05T15:56:55;4.10;;;2.80;;
7475;SDS011;3779;49.216;8.650;2023-03-05T15:59:42;3.70;;;3.03;;
7475;SDS011;3779;49.216;8.650;2023-03-05T16:02:55;4.60;;;3.00;;
7475;SDS011;3779;49.216;8.650;2023-03-05T18:27:40;9.73;;;8.37;;
7475;SDS011;3779;49.216;8.650;2023-03-05T18:30:27;12.83;;;9.40;;
7475;SDS011;3779;49.216;8.650;2023-03-05T18:33:19;12.87;;;9.77;;
7475;SDS011;3779;49.216;8.650;2023-03-05T18:39:04;13.10;;;9.67;;
7475;SDS011;3779;49.216;8.650;2023-03-05T18:41:56;11.37;;;9.77;;
7475;SDS011;3779;49.216;8.650;2023-03-05T18:47:34;11.80;;;9.67;;
7475;SDS011;3779;49.216;8.650;2023-03-05T18:59:46;15.77;;;12.60;;
7475;SDS011;3779;49.216;8.650;2023-03-05T19:02:32;16.50;;;12.83;;
7475;SDS011;3779;49.216;8.650;2023-03-05T19:05:20;17.33;;;13.03;;
7475;SDS011;3779;49.216;8.650;2023-03-05T19:08:30;19.43;;;13.40;;
7475;SDS011;3779;49.216;8.650;2023-03-05T19:11:19;16.77;;;13.10;;
7475;SDS011;3779;49.216;8.650;2023-03-05T19:14:07;18.50;;;14.23;;
7475;SDS011;3779;49.216;8.650;2023-03-05T19:16:59;16.23;;;13.13;;
7475;SDS011;3779;49.216;8.650;2023-03-05T19:19:56;16.47;;;12.63;;
7475;SDS011;3779;49.216;8.650;2023-03-05T19:22:44;14.87;;;13.07;;
7475;SDS011;3779;49.216;8.650;2023-03-05T19:25:35;16.27;;;13.37;;
7475;SDS011;3779;49.216;8.650;2023-03-05T19:28:22;18.47;;;14.10;;
7475;SDS011;3779;49.216;8.650;2023-03-05T19:31:13;16.60;;;14.50;;
7475;SDS011;3779;49.216;8.650;2023-03-05T19:33:59;18.80;;;15.10;;
7475;SDS011;3779;49.216;8.650;2023-03-05T19:36:47;22.03;;;15.90;;
7475;SDS011;3779;49.216;8.650;2023-03-05T19:39:37;21.80;;;16.37;;
7475;SDS011;3779;49.216;8.650;2023-03-05T19:42:37;23.10;;;17.43;;
7475;SDS011;3779;49.216;8.650;2023-03-05T19:45:23;21.87;;;16.50;;
7475;SDS011;3779;49.216;8.650;2023-03-05T19:48:13;22.83;;;16.57;;
7475;SDS011;3779;49.216;8.650;2023-03-05T19:51:01;20.33;;;15.87;;
7475;SDS011;3779;49.216;8.650;2023-03-05T19:53:52;20.17;;;15.87;;
7475;SDS011;3779;49.216;8.650;2023-03-05T19:56:39;17.87;;;14.50;;
7475;SDS011;3779;49.216;8.650;2023-03-05T19:59:25;19.90;;;14.47;;
7475;SDS011;3779;49.216;8.650;2023-03-05T20:02:11;19.70;;;14.77;;
7475;SDS011;3779;49.216;8.650;2023-03-05T20:04:58;16.70;;;14.27;;
7475;SDS011;3779;49.216;8.650;2023-03-05T20:07:44;19.53;;;14.90;;
7475;SDS011;3779;49.216;8.650;2023-03-05T20:10:31;20.33;;;15.77;;
7475;SDS011;3779;49.216;8.650;2023-03-05T20:13:17;20.43;;;15.40;;
7475;SDS011;3779;49.216;8.650;2023-03-05T20:16:04;20.83;;;15.33;;
7475;SDS011;3779;49.216;8.650;2023-03-05T20:18:58;20.00;;;15.27;;
7475;SDS011;3779;49.216;8.650;2023-03-05T20:21:45;18.47;;;14.83;;
7475;SDS011;3779;49.216;8.650;2023-03-05T20:24:31;18.70;;;15.53;;
7475;SDS011;3779;49.216;8.650;2023-03-05T20:27:17;18.03;;;14.60;;
7475;SDS011;3779;49.216;8.650;2023-03-05T20:30:04;23.90;;;15.87;;
7475;SDS011;3779;49.216;8.650;2023-03-05T20:32:51;19.53;;;14.60;;
7475;SDS011;3779;49.216;8.650;2023-03-05T20:35:40;17.00;;;14.83;;
7475;SDS011;3779;49.216;8.650;2023-03-05T20:38:27;23.33;;;15.93;;
7475;SDS011;3779;49.216;8.650;2023-03-05T20:41:15;19.17;;;14.97;;
7475;SDS011;3779;49.216;8.650;2023-03-05T20:44:06;20.33;;;14.93;;
7475;SDS011;3779;49.216;8.650;2023-03-05T20:46:52;20.17;;;15.80;;
7475;SDS011;3779;49.216;8.650;2023-03-05T20:49:54;20.47;;;15.57;;
7475;SDS011;3779;49.216;8.650;2023-03-05T20:52:41;18.63;;;15.27;;
7475;SDS011;3779;49.216;8.650;2023-03-05T20:55:30;21.03;;;15.33;;
7475;SDS011;3779;49.216;8.650;2023-03-05T20:58:16;18.07;;;15.53;;
7475;SDS011;3779;49.216;8.650;2023-03-05T21:01:03;21.70;;;15.83;;
7475;SDS011;3779;49.216;8.650;2023-03-05T21:03:51;23.30;;;15.30;;
7475;SDS011;3779;49.216;8.650;2023-03-05T21:06:57;20.33;;;14.40;;
7475;SDS011;3779;49.216;8.650;2023-03-05T21:09:44;23.37;;;15.50;;
7475;SDS011;3779;49.216;8.650;2023-03-05T21:12:31;20.87;;;14.73;;
7475;SDS011;3779;49.216;8.650;2023-03-05T21:15:22;19.80;;;14.80;;
7475;SDS011;3779;49.216;8.650;2023-03-05T21:18:10;18.37;;;14.73;;
7475;SDS011;3779;49.216;8.650;2023-03-05T21:20:56;20.70;;;14.93;;
7475;SDS011;3779;49.216;8.650;2023-03-05T21:23:42;17.83;;;14.17;;
7475;SDS011;3779;49.216;8.650;2023-03-05T21:26:29;18.83;;;13.97;;